ěÝzenÝ letovÚho provozu ╚eskÚ republiky
OPMET data - Ceska Republika Aktualizace: 21.01.2020 22:25:26  UTC
SIGMET / AIRMET - NIL
Warning / Vystraha
LKNA AD WRNG 1 VALID 212200/220400 VIS BLW 800M AND BASE BLW 200FT OBS AND FCST NC=
AIREP - NIL
REG QNH
REGIONAL QNH FORECAST ISSUED 2020-01-21 20:43 AREA VALID FM/TL QNH/HPA/ : LKAA 212100/220000 1031 =
 
METAR / SPECI
METAR LKBC 212200Z AUTO VRB02KT 2100 BR OVC002 M03/M04 Q1037=
METAR LKCV 212200Z 25003KT 8000 OVC008 M02/M04 Q1038 NOSIG RMK GRN GRN=
METAR LKKB 212200Z 17004KT 130V190 6000 OVC006 M02/M03 Q1037 NOSIG RMK YLO=
METAR LKKU NIL
METAR LKKV 212200Z VRB02KT CAVOK M07/M07 Q1035 RMK REG QNH 1031=
METAR LKLN 212230Z AUTO 18004KT 5000 BR OVC004 M03/M03 Q1037=
METAR LKMT 212200Z 23018KT 8000 OVC009 M01/M02 Q1036 NOSIG RMK REG QNH 1031=
METAR LKNA 212200Z 26004KT 230V290 1600 BR OVC002 M04/M04 Q1036 RMK AMB=
METAR LKPD 212200Z 25004KT 9999 OVC008 M02/M04 Q1038 RMK GRN=
METAR LKPJ 212200Z AUTO 26003KT 210V310 9999 OVC009 M02/M03 Q1038=
METAR LKPR 212200Z 19006KT 160V230 0900 R24/1400N R30/1300U FZFG VV002 M03/M03 Q1037 NOSIG RMK REG QNH 1031=
METAR LKTB 212200Z 30005KT 9999 OVC011 M01/M03 Q1038 R27/21//95 NOSIG RMK REG QNH 1031=
METAR LKVO NIL
TAF
TAF LKBC NIL
TAF LKCV 211700Z 2118/2218 20004KT 6000 OVC008      BECMG 2118/2121 3000 BR OVC005      TEMPO 2120/2207 0400 FZFG OVC001      BECMG 2210/2213 32010KT 9999 BKN025=
TAF AMD LKKB 211700Z 2118/2218 17008KT 7000 OVC005      BECMG 2119/2121 5000 BR OVC004      BECMG 2121/2123 3000 BR OVC003      TEMPO 2123/2208 1200 BR OVC001      BECMG 2208/2210 28008KT 8000 SCT010      BECMG 2210/2212 32008KT 9999 BKN015=
TAF LKKU NIL
TAF LKKV 211700Z 2118/2300 VRB02KT CAVOK      TEMPO 2118/2121 7000 SCT013      BECMG 2121/2200 2500 BR BKN007      TEMPO 2200/2208 0700 FZFG BKN002      BECMG 2208/2210 23004KT 7000 SCT020      BECMG 2211/2213 27006KT BKN013      BECMG 2218/2220 VRB02KT      TEMPO 2221/2300 3000 BR BKN007=
TAF LKLN NIL
TAF AMD LKMT 211935Z 2119/2300 24015KT 8000 BKN011      TEMPO 2119/2209 23016G26KT 9999 SCT013      BECMG 2209/2211 BKN020      BECMG 2212/2214 35006KT      TEMPO 2214/2300 5000 -SN BR BKN011=
TAF LKNA 211700Z 2118/2218 24004KT 7000 OVC007      BECMG 2118/2120 5000 BR OVC005      TEMPO 2121/2208 1200 BR OVC002      BECMG 2208/2210 30008KT 9999 BKN025      TEMPO 2211/2218 32010G20KT BKN020=
TAF LKPD 211700Z 2118/2218 25005KT 9999 OVC010      TEMPO 2119/2209 4000 BR BKN006      PROB30 TEMPO 2201/2207 0700 FZFG OVC002      BECMG 2209/2212 27010KT BKN022      TEMPO 2215/2218 27014KT BKN013=
TAF LKPJ NIL
TAF AMD LKPR 211925Z 2119/2300 21006KT 0600 FZFG BKN002      TEMPO 2119/2122 0900 FZFG BKN004      BECMG 2122/2200 0400 FZFG BKN001      TEMPO 2200/2207 0600 FZFG BKN003      BECMG 2207/2209 25010KT 9999 SCT025      BECMG 2212/2214 32006KT BKN030      BECMG 2218/2220 VRB02KT      TEMPO 2221/2300 5000 BR BKN013=
TAF LKTB 211700Z 2118/2300 VRB02KT 7000 BKN013      TEMPO 2118/2121 BKN020      BECMG 2121/2200 3000 BR BKN007      TEMPO 2200/2208 1300 BR BKN003      BECMG 2208/2210 27006KT 9999 SCT023      BECMG 2212/2214 33010KT BKN020      BECMG 2218/2221 SCT027=
TAF LKVO NIL